Time;durP1;ratioP1;P1;durP2;ratioP2;P2;SDS_P1;SDS_P2;PMS_P1;PMS_P2;Temp;Humidity;BMP_temperature;BMP_pressure;BME280_temperature;BME280_humidity;BME280_pressure;Samples;Min_cycle;Max_cycle;Signal;HPM_P1;HPM_P2
2022/07/04 00:01:24;;;;;;;4.77;4.37;;;14.70;1.00;;;;;;5074878;28;20282;-66
2022/07/04 00:03:50;;;;;;;4.83;3.97;;;14.60;1.00;;;;;;5084309;28;20272;-66
2022/07/04 00:06:16;;;;;;;6.60;3.93;;;14.60;1.00;;;;;;5093735;28;20328;-72
2022/07/04 00:08:41;;;;;;;4.27;3.90;;;14.70;1.00;;;;;;5085892;28;20197;-66
2022/07/04 00:11:07;;;;;;;4.67;4.27;;;14.70;1.00;;;;;;5074835;28;20182;-74
2022/07/04 00:13:33;;;;;;;4.30;3.83;;;14.70;1.00;;;;;;5084203;28;20229;-65
2022/07/04 00:15:58;;;;;;;3.80;3.50;;;14.70;3.10;;;;;;5094769;28;20566;-72
2022/07/04 00:18:24;;;;;;;3.80;3.50;;;14.70;3.80;;;;;;5093120;28;20662;-74
2022/07/04 00:20:50;;;;;;;4.13;3.67;;;14.70;4.20;;;;;;5094838;28;20236;-74
2022/07/04 00:23:16;;;;;;;5.60;3.50;;;14.60;2.90;;;;;;5077370;28;20173;-66
2022/07/04 00:25:41;;;;;;;6.93;3.60;;;14.50;1.00;;;;;;5079327;28;20180;-66
2022/07/04 00:28:07;;;;;;;4.70;3.83;;;14.50;10.80;;;;;;5092916;28;20176;-73
2022/07/04 00:30:33;;;;;;;4.00;3.60;;;14.50;16.60;;;;;;5078955;28;20184;-73
2022/07/04 00:32:58;;;;;;;6.77;3.90;;;14.50;31.60;;;;;;5073554;28;20166;-66
2022/07/04 00:35:24;;;;;;;5.20;4.60;;;14.40;36.60;;;;;;5087624;28;20555;-65
2022/07/04 00:37:50;;;;;;;3.90;3.60;;;14.40;52.80;;;;;;5094522;28;20303;-69
2022/07/04 00:40:15;;;;;;;6.73;4.13;;;14.40;65.10;;;;;;5082786;28;20578;-66
2022/07/04 00:42:41;;;;;;;5.00;4.00;;;14.40;84.00;;;;;;5073234;28;20199;-65
2022/07/04 00:45:08;;;;;;;4.20;3.90;;;14.40;98.00;;;;;;5083743;28;20192;-65
2022/07/04 00:47:33;;;;;;;5.00;4.60;;;14.50;99.90;;;;;;5094229;28;20166;-66
2022/07/04 00:49:59;;;;;;;4.10;3.80;;;14.50;99.90;;;;;;5085457;28;20379;-72
2022/07/04 00:52:25;;;;;;;4.07;3.77;;;14.50;99.90;;;;;;5072877;28;20189;-66
2022/07/04 00:54:50;;;;;;;6.10;3.93;;;14.60;99.90;;;;;;5080357;28;20212;-73
2022/07/04 00:57:16;;;;;;;5.80;3.90;;;14.60;99.90;;;;;;5093184;28;20260;-74
2022/07/04 00:59:42;;;;;;;4.37;4.07;;;14.50;99.90;;;;;;5088857;28;20182;-66
2022/07/04 01:02:08;;;;;;;4.07;3.77;;;14.50;99.90;;;;;;5073368;28;20194;-66
2022/07/04 01:04:34;;;;;;;4.63;3.93;;;14.60;99.90;;;;;;5074973;28;20185;-74
2022/07/04 01:07:00;;;;;;;4.57;4.00;;;14.60;99.90;;;;;;5092253;28;20386;-66
2022/07/04 01:09:26;;;;;;;5.37;4.37;;;14.60;99.90;;;;;;5092149;28;20386;-73
2022/07/04 01:11:51;;;;;;;6.00;4.10;;;14.50;99.90;;;;;;5093080;28;20691;-66
2022/07/04 01:14:17;;;;;;;4.53;4.13;;;14.50;99.90;;;;;;5073995;28;20210;-73
2022/07/04 01:16:43;;;;;;;10.30;5.30;;;14.40;99.90;;;;;;5073614;28;20170;-66
2022/07/04 01:19:09;;;;;;;4.80;4.40;;;14.40;99.90;;;;;;5091311;28;20426;-73
2022/07/04 01:21:34;;;;;;;5.20;3.53;;;14.40;99.90;;;;;;5090279;28;20193;-73
2022/07/04 01:24:00;;;;;;;4.47;4.07;;;14.40;99.90;;;;;;5072552;28;20186;-74
2022/07/04 01:26:28;;;;;;;4.63;4.20;;;14.30;99.90;;;;;;5074583;28;20177;-74
2022/07/04 01:28:53;;;;;;;3.87;3.60;;;14.30;99.90;;;;;;5093698;28;20268;-74
2022/07/04 01:31:19;;;;;;;6.00;4.57;;;14.40;99.90;;;;;;5087629;28;20523;-66
2022/07/04 01:33:45;;;;;;;4.77;4.30;;;14.40;99.90;;;;;;5092378;28;20196;-66
2022/07/04 01:36:10;;;;;;;5.23;3.90;;;14.40;99.90;;;;;;5091236;28;20616;-66
2022/07/04 01:38:36;;;;;;;7.17;4.20;;;14.40;99.90;;;;;;5073227;28;20181;-66
2022/07/04 01:41:02;;;;;;;4.60;4.27;;;14.30;99.90;;;;;;5073276;28;20194;-66
2022/07/04 01:43:27;;;;;;;4.07;3.73;;;14.40;99.90;;;;;;5072365;28;20217;-66
2022/07/04 01:45:53;;;;;;;5.77;4.20;;;14.40;99.90;;;;;;5073604;28;20169;-73
2022/07/04 01:48:18;;;;;;;6.83;3.80;;;14.40;99.90;;;;;;5074555;28;20223;-74
2022/07/04 01:50:44;;;;;;;4.20;3.80;;;14.40;99.90;;;;;;5072962;28;20175;-73
2022/07/04 01:53:10;;;;;;;6.20;4.10;;;14.30;99.90;;;;;;5088754;28;20161;-66
2022/07/04 01:55:36;;;;;;;5.13;4.10;;;14.30;99.90;;;;;;5093441;28;20158;-66
2022/07/04 01:58:01;;;;;;;5.17;4.77;;;14.30;99.90;;;;;;5078024;28;20170;-74
2022/07/04 02:03:12;;;;;;;4.77;4.37;;;14.40;99.90;;;;;;5085865;28;20187;-68
2022/07/04 02:05:38;;;;;;;4.07;3.77;;;14.30;99.90;;;;;;5093393;28;20391;-74
2022/07/04 02:08:05;;;;;;;4.30;3.67;;;14.40;99.90;;;;;;5077374;28;20408;-66
2022/07/04 02:10:31;;;;;;;12.57;4.43;;;14.40;99.90;;;;;;5074001;28;20432;-73
2022/07/04 02:13:03;;;;;;;4.47;4.07;;;14.40;99.90;;;;;;5084228;28;20422;-73
2022/07/04 02:15:36;;;;;;;5.53;5.00;;;14.40;99.90;;;;;;5093384;28;20210;-65
2022/07/04 02:18:07;;;;;;;5.00;3.87;;;14.40;99.90;;;;;;5073541;28;20589;-74
2022/07/04 02:20:34;;;;;;;4.30;3.90;;;14.40;99.90;;;;;;5072840;28;20408;-66
2022/07/04 02:22:59;;;;;;;6.13;4.20;;;14.40;99.90;;;;;;5087870;28;20462;-73
2022/07/04 02:25:26;;;;;;;6.80;4.57;;;14.30;99.90;;;;;;5085404;28;20936;-66
2022/07/04 02:27:51;;;;;;;4.87;4.37;;;14.40;99.90;;;;;;5076036;28;20320;-66
2022/07/04 02:30:17;;;;;;;5.63;4.27;;;14.40;99.90;;;;;;5085715;28;20964;-74
2022/07/04 02:32:43;;;;;;;6.57;4.43;;;14.40;99.90;;;;;;5090476;28;20207;-66
2022/07/04 02:35:10;;;;;;;5.03;4.40;;;14.40;99.90;;;;;;5084812;28;20769;-74
2022/07/04 02:37:36;;;;;;;4.70;4.30;;;14.40;99.90;;;;;;5088028;28;20872;-66
2022/07/04 02:40:02;;;;;;;4.90;4.50;;;14.40;99.90;;;;;;5086223;28;20939;-66
2022/07/04 02:42:33;;;;;;;7.30;4.87;;;14.40;99.90;;;;;;5080217;28;20585;-74
2022/07/04 02:44:59;;;;;;;6.23;4.03;;;14.50;99.90;;;;;;5092843;28;20415;-72
2022/07/04 02:47:25;;;;;;;5.27;4.70;;;14.40;99.90;;;;;;5074254;28;20921;-74
2022/07/04 02:49:51;;;;;;;7.90;4.77;;;14.40;99.90;;;;;;5075168;28;20885;-66
2022/07/04 02:52:16;;;;;;;5.00;4.50;;;14.40;99.90;;;;;;5091827;28;20442;-74
2022/07/04 02:54:42;;;;;;;5.80;3.80;;;14.40;99.90;;;;;;5096391;28;20200;-74
2022/07/04 02:57:08;;;;;;;4.63;4.33;;;14.40;99.90;;;;;;5082759;28;20712;-67
2022/07/04 02:59:34;;;;;;;4.83;4.43;;;14.40;99.90;;;;;;5089865;28;20442;-66
2022/07/04 03:02:00;;;;;;;6.83;4.13;;;14.40;99.90;;;;;;5082564;28;20256;-71
2022/07/04 03:04:26;;;;;;;5.33;4.20;;;14.40;99.90;;;;;;5075318;28;20420;-74
2022/07/04 03:06:52;;;;;;;5.30;4.20;;;14.40;99.90;;;;;;5087336;28;20491;-66
2022/07/04 03:09:17;;;;;;;9.63;4.50;;;14.40;99.90;;;;;;5096054;28;20307;-66
2022/07/04 03:11:44;;;;;;;4.60;4.30;;;14.30;99.90;;;;;;5086050;28;20178;-66
2022/07/04 03:14:09;;;;;;;6.43;4.50;;;14.40;99.90;;;;;;5083029;28;20197;-74
2022/07/04 03:16:35;;;;;;;5.17;4.77;;;14.40;99.90;;;;;;5087550;28;20494;-75
2022/07/04 03:19:01;;;;;;;4.60;4.20;;;14.40;99.90;;;;;;5075705;28;20177;-74
2022/07/04 03:21:26;;;;;;;5.90;5.40;;;14.40;99.90;;;;;;5081840;28;20697;-74
2022/07/04 03:23:58;;;;;;;5.10;4.50;;;14.30;99.90;;;;;;5094858;28;20524;-74
2022/07/04 03:26:25;;;;;;;8.33;4.73;;;14.40;99.90;;;;;;5090371;28;20174;-74
2022/07/04 03:28:52;;;;;;;5.50;5.00;;;14.30;99.90;;;;;;5075633;28;20375;-66
2022/07/04 03:31:17;;;;;;;4.73;4.30;;;14.30;99.90;;;;;;5089455;28;20872;-66
2022/07/04 03:33:43;;;;;;;6.20;4.83;;;14.30;99.90;;;;;;5074432;28;20474;-75
2022/07/04 03:36:09;;;;;;;7.67;5.50;;;14.30;99.90;;;;;;5077556;28;20166;-67
2022/07/04 03:38:36;;;;;;;5.33;4.80;;;14.40;99.90;;;;;;5095706;28;20453;-66
2022/07/04 03:41:02;;;;;;;6.33;4.17;;;14.40;99.90;;;;;;5088221;28;20676;-74
2022/07/04 03:43:27;;;;;;;5.20;4.80;;;14.40;99.90;;;;;;5074273;28;20807;-74
2022/07/04 03:45:53;;;;;;;4.67;4.37;;;14.30;99.90;;;;;;5079139;28;20411;-74
2022/07/04 03:48:20;;;;;;;5.50;5.03;;;14.40;99.90;;;;;;5095081;28;20170;-66
2022/07/04 03:50:45;;;;;;;4.57;4.17;;;14.40;99.90;;;;;;5091381;28;20166;-66
2022/07/04 03:53:12;;;;;;;4.30;4.00;;;14.40;99.90;;;;;;5074182;28;20376;-74
2022/07/04 03:55:38;;;;;;;5.60;3.87;;;14.40;99.90;;;;;;5076757;28;20558;-74
2022/07/04 03:58:05;;;;;;;5.67;4.50;;;14.40;99.90;;;;;;5095234;28;20773;-66
2022/07/04 04:00:31;;;;;;;4.43;4.03;;;14.40;99.90;;;;;;5090722;28;20439;-74
2022/07/04 04:02:57;;;;;;;4.97;3.83;;;14.40;99.90;;;;;;5075569;28;20464;-74
2022/07/04 04:05:26;;;;;;;4.67;4.30;;;14.50;99.90;;;;;;5075070;28;20921;-74
2022/07/04 04:08:01;;;;;;;4.47;4.07;;;14.50;99.90;;;;;;5075765;28;20392;-66
2022/07/04 04:10:29;;;;;;;4.43;4.10;;;14.50;99.90;;;;;;5095126;28;20427;-66
2022/07/04 04:12:55;;;;;;;4.67;3.97;;;14.50;99.90;;;;;;5092441;28;20415;-66
2022/07/04 04:15:21;;;;;;;4.60;4.30;;;14.60;99.90;;;;;;5074570;28;20748;-67
2022/07/04 04:17:46;;;;;;;5.53;5.03;;;14.60;99.90;;;;;;5074483;28;20826;-74
2022/07/04 04:20:12;;;;;;;4.53;4.23;;;14.60;99.90;;;;;;5076582;28;20260;-74
2022/07/04 04:22:38;;;;;;;9.73;4.80;;;14.70;99.90;;;;;;5073517;28;20205;-66
2022/07/04 04:25:04;;;;;;;5.13;4.73;;;14.70;99.90;;;;;;5092274;28;20678;-66
2022/07/04 04:27:29;;;;;;;8.60;4.27;;;14.70;99.90;;;;;;5092385;28;20257;-75
2022/07/04 04:29:55;;;;;;;5.83;4.57;;;14.70;99.90;;;;;;5074387;28;20920;-66
2022/07/04 04:32:21;;;;;;;4.20;3.80;;;14.80;99.90;;;;;;5086743;28;20189;-74
2022/07/04 04:34:47;;;;;;;4.17;3.87;;;14.80;99.90;;;;;;5094472;28;20185;-74
2022/07/04 04:37:13;;;;;;;5.93;3.93;;;14.80;99.90;;;;;;5084844;28;20454;-66
2022/07/04 04:39:39;;;;;;;4.83;3.50;;;14.80;99.90;;;;;;5092747;28;20188;-75
2022/07/04 04:42:04;;;;;;;7.30;3.63;;;14.80;99.90;;;;;;5083424;28;20205;-74
2022/07/04 04:44:30;;;;;;;3.83;3.50;;;14.90;99.90;;;;;;5073454;28;20830;-74
2022/07/04 04:46:56;;;;;;;4.30;3.90;;;14.80;99.90;;;;;;5082288;28;20639;-74
2022/07/04 04:49:22;;;;;;;11.87;4.23;;;14.80;99.90;;;;;;5094274;28;20508;-74
2022/07/04 04:51:47;;;;;;;3.43;3.23;;;14.70;99.90;;;;;;5089299;28;20663;-67
2022/07/04 04:54:13;;;;;;;8.93;3.70;;;14.80;99.90;;;;;;5093149;28;20196;-68
2022/07/04 04:56:39;;;;;;;4.93;3.60;;;14.80;99.90;;;;;;5085434;28;20238;-67
2022/07/04 04:59:04;;;;;;;4.17;3.60;;;14.80;99.90;;;;;;5073764;28;20555;-67
2022/07/04 05:01:30;;;;;;;4.87;3.73;;;14.80;99.90;;;;;;5080114;28;20205;-73
2022/07/04 05:03:56;;;;;;;4.43;4.03;;;14.80;99.90;;;;;;5092996;28;20670;-74
2022/07/04 05:06:21;;;;;;;3.53;3.23;;;14.70;99.90;;;;;;5090686;28;20177;-73
2022/07/04 05:08:48;;;;;;;4.23;3.83;;;14.80;99.90;;;;;;5085988;28;20539;-64
2022/07/04 05:11:13;;;;;;;4.17;3.77;;;14.80;99.90;;;;;;5089679;28;20184;-64
2022/07/04 05:13:39;;;;;;;6.30;3.70;;;14.90;99.90;;;;;;5091778;28;20504;-65
2022/07/04 05:16:05;;;;;;;4.60;3.33;;;14.90;99.90;;;;;;5093011;28;20203;-73
2022/07/04 05:18:31;;;;;;;4.60;3.40;;;14.90;99.90;;;;;;5072239;28;20220;-73
2022/07/04 05:20:58;;;;;;;11.90;3.50;;;14.90;99.90;;;;;;5092238;28;20261;-65
2022/07/04 05:23:24;;;;;;;3.53;3.23;;;15.00;99.90;;;;;;5092965;28;20181;-65
2022/07/04 05:25:50;;;;;;;4.07;3.57;;;15.10;99.90;;;;;;5085095;28;20944;-65
2022/07/04 05:28:16;;;;;;;4.30;3.00;;;15.20;99.90;;;;;;5072993;28;20662;-66
2022/07/04 05:30:42;;;;;;;3.43;3.07;;;15.20;99.90;;;;;;5089133;28;20402;-65
2022/07/04 05:33:08;;;;;;;2.63;2.30;;;15.20;99.90;;;;;;5092861;28;20169;-73
2022/07/04 05:35:34;;;;;;;4.60;3.87;;;15.30;99.90;;;;;;5077071;28;20547;-74
2022/07/04 05:38:00;;;;;;;2.57;2.13;;;15.40;99.90;;;;;;5073409;28;20462;-66
2022/07/04 05:40:26;;;;;;;10.20;3.20;;;15.40;99.90;;;;;;5087769;28;20526;-74
2022/07/04 05:42:52;;;;;;;5.13;2.90;;;15.50;99.90;;;;;;5092378;28;20216;-65
2022/07/04 05:45:17;;;;;;;2.97;2.60;;;15.50;99.90;;;;;;5081927;28;20440;-74
2022/07/04 05:47:44;;;;;;;5.97;3.80;;;15.60;99.90;;;;;;5073293;28;20202;-65
2022/07/04 05:50:10;;;;;;;13.53;3.07;;;15.60;99.90;;;;;;5073894;28;20166;-74
2022/07/04 05:52:35;;;;;;;3.30;2.63;;;15.60;99.90;;;;;;5071520;28;20447;-71
2022/07/04 05:55:01;;;;;;;2.40;2.17;;;15.60;99.90;;;;;;5085930;28;20201;-64
2022/07/04 05:57:27;;;;;;;3.40;2.73;;;15.60;99.90;;;;;;5092384;28;20214;-74
2022/07/04 05:59:53;;;;;;;2.70;2.50;;;15.60;99.90;;;;;;5092984;28;20170;-64
2022/07/04 06:02:19;;;;;;;3.00;2.10;;;15.60;99.90;;;;;;5091960;28;20535;-74
2022/07/04 06:04:44;;;;;;;2.87;2.47;;;15.70;99.90;;;;;;5092803;28;20188;-65
2022/07/04 06:07:10;;;;;;;4.40;1.90;;;15.80;99.90;;;;;;5092929;28;20551;-64
2022/07/04 06:09:36;;;;;;;3.10;2.33;;;15.80;99.90;;;;;;5086257;28;20170;-66
2022/07/04 06:12:03;;;;;;;4.00;2.10;;;15.90;99.90;;;;;;5072175;28;20177;-72
2022/07/04 06:14:29;;;;;;;3.10;2.40;;;16.00;99.90;;;;;;5071836;28;20424;-67
2022/07/04 06:16:54;;;;;;;2.07;1.93;;;16.10;99.90;;;;;;5072531;28;20385;-69
2022/07/04 06:19:20;;;;;;;3.50;1.50;;;16.10;99.90;;;;;;5072624;28;20588;-72
2022/07/04 06:21:46;;;;;;;6.50;1.90;;;16.10;99.90;;;;;;5072500;28;20192;-73
2022/07/04 06:24:11;;;;;;;3.40;2.00;;;16.10;99.90;;;;;;5073195;28;20237;-65
2022/07/04 06:26:37;;;;;;;2.33;2.13;;;16.30;99.90;;;;;;5087657;28;20253;-72
2022/07/04 06:29:03;;;;;;;6.53;1.80;;;16.30;99.90;;;;;;5096585;28;20281;-73
2022/07/04 06:31:29;;;;;;;4.20;2.00;;;16.40;98.90;;;;;;5096432;28;20166;-65
2022/07/04 06:36:38;;;;;;;2.90;1.40;;;16.50;85.60;;;;;;5096792;28;20222;-66
2022/07/04 06:39:04;;;;;;;3.00;1.50;;;16.50;65.60;;;;;;5096282;28;20906;-65
2022/07/04 06:41:30;;;;;;;5.53;1.57;;;16.60;64.50;;;;;;5096531;28;20237;-65
2022/07/04 06:43:55;;;;;;;5.83;1.90;;;16.70;46.50;;;;;;5078600;28;20190;-65
2022/07/04 06:46:21;;;;;;;2.10;1.70;;;16.70;39.00;;;;;;5076021;28;20174;-65
2022/07/04 06:48:47;;;;;;;2.50;1.60;;;16.70;9.60;;;;;;5075847;28;20170;-73
2022/07/04 06:51:13;;;;;;;1.60;1.50;;;16.70;5.20;;;;;;5074447;28;20179;-74
2022/07/04 06:53:41;;;;;;;2.47;1.87;;;16.80;1.00;;;;;;5074910;28;20193;-65
2022/07/04 06:56:07;;;;;;;8.27;2.03;;;16.80;1.00;;;;;;5075982;28;20408;-64
2022/07/04 06:58:32;;;;;;;2.67;2.03;;;16.80;1.00;;;;;;5075266;28;20397;-72
2022/07/04 07:00:58;;;;;;;2.83;2.10;;;16.90;1.00;;;;;;5095554;28;20177;-67
2022/07/04 07:03:24;;;;;;;1.73;1.63;;;16.90;1.00;;;;;;5095083;28;20182;-74
2022/07/04 07:05:49;;;;;;;2.00;1.83;;;17.00;1.00;;;;;;5095552;28;20172;-65
2022/07/04 07:08:15;;;;;;;3.70;1.90;;;17.00;1.00;;;;;;5095919;28;20164;-65
2022/07/04 07:10:41;;;;;;;1.90;1.80;;;17.10;1.00;;;;;;5096019;28;20162;-64
2022/07/04 07:13:06;;;;;;;2.63;2.10;;;17.20;1.00;;;;;;5094701;28;20165;-73
2022/07/04 07:15:35;;;;;;;5.83;2.13;;;17.10;1.00;;;;;;5094470;28;20547;-66
2022/07/04 07:18:03;;;;;;;3.37;2.27;;;17.10;1.00;;;;;;5079500;28;20220;-66
2022/07/04 07:20:29;;;;;;;3.30;2.00;;;17.10;1.00;;;;;;5081495;28;20974;-74
2022/07/04 07:22:55;;;;;;;2.50;1.73;;;17.30;1.00;;;;;;5090197;28;20460;-73
2022/07/04 07:25:20;;;;;;;5.10;2.10;;;17.30;1.00;;;;;;5075155;28;20186;-73
2022/07/04 07:27:46;;;;;;;2.73;2.10;;;17.40;1.00;;;;;;5088858;28;20667;-73
2022/07/04 07:30:12;;;;;;;1.70;1.60;;;17.40;1.00;;;;;;5091982;28;20513;-67
2022/07/04 07:32:38;;;;;;;2.20;2.00;;;17.40;1.00;;;;;;5075901;28;20178;-73
2022/07/04 07:35:04;;;;;;;2.70;1.90;;;17.50;1.00;;;;;;5087762;28;20457;-74
2022/07/04 07:37:30;;;;;;;4.50;1.70;;;17.70;1.00;;;;;;5095220;28;20173;-66
2022/07/04 07:39:55;;;;;;;7.53;2.13;;;17.80;1.00;;;;;;5086762;28;20479;-72
2022/07/04 07:42:24;;;;;;;1.73;1.63;;;18.00;1.00;;;;;;5094240;28;20194;-65
2022/07/04 07:44:49;;;;;;;2.20;1.70;;;18.00;99.90;;;;;;5094556;28;20194;-74
2022/07/04 07:47:15;;;;;;;3.17;2.03;;;18.00;99.90;;;;;;5086651;28;20969;-68
2022/07/04 07:49:42;;;;;;;5.57;1.83;;;18.00;99.90;;;;;;5092342;28;20181;-64
2022/07/04 07:52:08;;;;;;;2.30;2.20;;;18.10;99.90;;;;;;5081966;28;20563;-65
2022/07/04 07:54:34;;;;;;;5.13;2.33;;;18.20;99.90;;;;;;5094385;28;20426;-65
2022/07/04 07:56:59;;;;;;;4.50;2.43;;;18.20;99.90;;;;;;5079955;28;20440;-74
2022/07/04 07:59:25;;;;;;;2.20;2.00;;;18.20;99.90;;;;;;5094859;28;20395;-66
2022/07/04 08:01:51;;;;;;;2.60;1.73;;;18.20;99.90;;;;;;5094043;28;20197;-67
2022/07/04 08:04:34;;;;;;;3.57;1.97;;;18.20;99.90;;;;;;5093863;28;20260;-72
2022/07/04 08:07:05;;;;;;;2.30;2.10;;;18.20;99.90;;;;;;5092879;28;20173;-73
2022/07/04 08:09:31;;;;;;;1.63;1.53;;;18.10;99.90;;;;;;5093359;28;21682;-69
2022/07/04 08:11:57;;;;;;;2.47;2.10;;;18.00;99.90;;;;;;5091424;28;20485;-76
2022/07/04 08:14:23;;;;;;;1.90;1.80;;;18.00;99.90;;;;;;5092853;28;20601;-69
2022/07/04 08:16:49;;;;;;;3.70;1.60;;;18.10;99.90;;;;;;5092323;28;20507;-76
2022/07/04 08:19:15;;;;;;;1.57;1.47;;;18.20;99.90;;;;;;5084324;28;20170;-70
2022/07/04 08:21:40;;;;;;;2.10;1.67;;;18.30;99.90;;;;;;5074038;28;20277;-66
2022/07/04 08:24:06;;;;;;;2.50;1.70;;;18.40;99.90;;;;;;5081459;28;20204;-67
2022/07/04 08:26:32;;;;;;;1.80;1.70;;;18.60;99.90;;;;;;5090067;28;20180;-70
2022/07/04 08:28:59;;;;;;;1.50;1.40;;;18.60;99.90;;;;;;5080244;28;20260;-75
2022/07/04 08:31:25;;;;;;;1.97;1.47;;;18.60;99.90;;;;;;5094240;28;20248;-67
2022/07/04 08:33:52;;;;;;;1.50;1.30;;;18.80;99.90;;;;;;5092031;28;20455;-73
2022/07/04 08:36:18;;;;;;;1.20;1.10;;;19.00;99.90;;;;;;5094201;28;20472;-73
2022/07/04 08:38:44;;;;;;;1.40;1.30;;;19.10;99.90;;;;;;5090485;28;20926;-76
2022/07/04 08:41:11;;;;;;;4.23;1.87;;;19.20;99.90;;;;;;5073848;28;20495;-76
2022/07/04 08:43:39;;;;;;;2.97;1.40;;;19.40;99.90;;;;;;5074208;28;20206;-67
2022/07/04 08:46:05;;;;;;;5.50;1.60;;;19.70;99.90;;;;;;5073085;28;20405;-67
2022/07/04 08:48:33;;;;;;;1.47;1.37;;;19.80;99.90;;;;;;5080107;28;20438;-68
2022/07/04 08:51:15;;;;;;;4.20;1.50;;;19.90;99.90;;;;;;5093912;28;20411;-75
2022/07/04 08:53:52;;;;;;;1.90;1.33;;;19.70;99.90;;;;;;5091687;28;20451;-67
2022/07/04 08:59:05;;;;;;;1.63;1.20;;;19.50;99.90;;;;;;5092840;28;20438;-74
2022/07/04 09:01:31;;;;;;;1.83;1.27;;;19.70;99.90;;;;;;5076687;28;20459;-75
2022/07/04 09:03:57;;;;;;;2.43;1.20;;;20.00;99.90;;;;;;5075680;28;20444;-67
2022/07/04 09:06:24;;;;;;;1.63;1.10;;;20.00;99.90;;;;;;5073470;28;20415;-66
2022/07/04 09:08:51;;;;;;;2.33;1.37;;;20.10;99.90;;;;;;5072327;28;20421;-75
2022/07/04 09:11:18;;;;;;;1.33;1.23;;;20.10;99.90;;;;;;5072774;28;20404;-75
2022/07/04 09:13:43;;;;;;;1.63;1.33;;;20.00;99.90;;;;;;5072580;28;20453;-67
2022/07/04 09:16:09;;;;;;;1.30;1.20;;;20.10;99.90;;;;;;5073147;28;20755;-73
2022/07/04 09:18:36;;;;;;;2.33;1.17;;;20.10;99.90;;;;;;5086846;28;21122;-74
2022/07/04 09:21:05;;;;;;;2.40;1.33;;;20.10;99.90;;;;;;5091206;28;20180;-75
2022/07/04 09:23:36;;;;;;;2.50;1.37;;;20.10;99.90;;;;;;5092436;28;20438;-66
2022/07/04 09:26:10;;;;;;;1.30;1.10;;;20.10;99.90;;;;;;5092565;28;20773;-73
2022/07/04 09:28:37;;;;;;;1.57;1.23;;;20.10;99.90;;;;;;5092759;28;20897;-75
2022/07/04 09:31:23;;;;;;;2.87;1.30;;;20.10;99.90;;;;;;5092784;28;20427;-76
2022/07/04 09:33:51;;;;;;;1.10;0.97;;;20.10;99.90;;;;;;5088377;28;21039;-67
2022/07/04 09:36:18;;;;;;;2.10;1.90;;;20.00;99.90;;;;;;5091947;28;20419;-75
2022/07/04 09:38:44;;;;;;;2.83;1.30;;;20.10;99.90;;;;;;5093184;28;20420;-67
2022/07/04 09:41:25;;;;;;;2.90;1.40;;;20.10;99.90;;;;;;5092807;28;20434;-67
2022/07/04 09:44:05;;;;;;;2.57;1.43;;;20.00;99.90;;;;;;5092303;28;20627;-71
2022/07/04 09:46:32;;;;;;;1.50;1.40;;;19.90;99.90;;;;;;5091634;28;20423;-74
2022/07/04 09:48:58;;;;;;;1.60;1.50;;;19.90;99.90;;;;;;5093165;28;20896;-75
2022/07/04 09:51:47;;;;;;;1.40;1.27;;;20.10;99.90;;;;;;5091420;28;20435;-66
2022/07/04 09:54:13;;;;;;;2.00;1.10;;;20.30;99.90;;;;;;5092109;28;20317;-74
2022/07/04 09:56:51;;;;;;;1.97;1.50;;;20.20;99.90;;;;;;5092284;28;20509;-75
2022/07/04 09:59:17;;;;;;;1.53;1.43;;;20.10;99.90;;;;;;5096737;28;20165;-67
2022/07/04 10:01:43;;;;;;;1.77;1.50;;;20.10;99.90;;;;;;5081820;28;20448;-75
2022/07/04 10:04:09;;;;;;;1.53;1.27;;;20.00;99.90;;;;;;5075649;28;20416;-71
2022/07/04 10:06:38;;;;;;;2.70;1.20;;;20.00;99.90;;;;;;5087310;28;20924;-74
2022/07/04 10:09:12;;;;;;;1.30;1.20;;;19.90;99.90;;;;;;5095489;28;20432;-75
2022/07/04 10:11:39;;;;;;;1.70;1.60;;;19.70;99.90;;;;;;5083716;28;20931;-75
2022/07/04 10:14:07;;;;;;;7.13;1.30;;;19.70;99.90;;;;;;5083641;28;20435;-75
2022/07/04 10:16:33;;;;;;;1.47;1.37;;;19.50;99.90;;;;;;5096924;28;20396;-71
2022/07/04 10:19:00;;;;;;;1.23;1.13;;;19.50;99.90;;;;;;5088587;28;20755;-75
2022/07/04 10:21:26;;;;;;;2.80;1.10;;;19.40;99.90;;;;;;5076432;28;20466;-75
2022/07/04 10:23:52;;;;;;;5.97;1.40;;;19.40;99.90;;;;;;5078084;28;20440;-71
2022/07/04 10:26:19;;;;;;;2.50;1.33;;;19.20;99.90;;;;;;5085851;28;20404;-75
2022/07/04 10:28:47;;;;;;;3.70;1.67;;;19.40;99.90;;;;;;5076193;28;20558;-66
2022/07/04 10:31:17;;;;;;;3.10;1.40;;;19.70;99.90;;;;;;5078735;28;20464;-70
2022/07/04 10:33:44;;;;;;;1.20;1.10;;;19.90;99.90;;;;;;5094377;28;20423;-75
2022/07/04 10:36:18;;;;;;;1.40;1.30;;;20.30;99.90;;;;;;5093630;28;20904;-67
2022/07/04 10:38:48;;;;;;;1.30;1.20;;;20.70;99.90;;;;;;5088411;28;20564;-74
2022/07/04 10:41:14;;;;;;;3.13;1.57;;;20.50;99.90;;;;;;5091395;28;20423;-73
2022/07/04 10:44:03;;;;;;;1.23;1.13;;;20.40;99.90;;;;;;5074907;28;20424;-76
2022/07/04 10:46:50;;;;;;;1.67;1.50;;;20.20;99.90;;;;;;5079856;28;20467;-67
2022/07/04 10:49:17;;;;;;;1.80;1.33;;;20.10;99.90;;;;;;5096235;28;20893;-69
2022/07/04 10:51:48;;;;;;;2.23;1.37;;;20.00;99.90;;;;;;5090183;28;20428;-75
2022/07/04 10:54:18;;;;;;;1.50;1.40;;;19.80;99.90;;;;;;5074924;28;20435;-76
2022/07/04 10:56:46;;;;;;;3.07;1.47;;;19.70;99.90;;;;;;5093184;28;20426;-67
2022/07/04 10:59:17;;;;;;;2.30;1.40;;;19.70;99.90;;;;;;5081614;28;20461;-68
2022/07/04 11:02:06;;;;;;;2.93;1.43;;;20.30;99.90;;;;;;5075900;28;20447;-75
2022/07/04 11:04:53;;;;;;;1.70;1.30;;;21.70;99.90;;;;;;5087100;28;20510;-71
2022/07/04 11:07:42;;;;;;;1.67;1.20;;;23.00;99.90;;;;;;5094890;28;20434;-66
2022/07/04 11:10:21;;;;;;;1.43;0.80;;;23.90;99.90;;;;;;5075001;28;20412;-76
2022/07/04 11:15:24;;;;;;;1.10;0.93;;;24.50;97.40;;;;;;5095851;28;20425;-74
2022/07/04 11:17:54;;;;;;;1.77;1.10;;;23.80;97.10;;;;;;5095217;28;20410;-74
2022/07/04 11:20:20;;;;;;;1.17;1.00;;;23.20;96.90;;;;;;5076334;28;20424;-67
2022/07/04 11:22:46;;;;;;;1.40;1.17;;;22.70;96.70;;;;;;5089958;28;20948;-66
2022/07/04 11:25:13;;;;;;;1.20;1.10;;;22.10;96.50;;;;;;5076339;28;20536;-71
2022/07/04 11:27:39;;;;;;;1.10;1.00;;;21.60;96.30;;;;;;5075398;28;20162;-67
2022/07/04 11:30:06;;;;;;;1.93;1.00;;;21.40;96.20;;;;;;5092256;28;20418;-67
2022/07/04 11:32:33;;;;;;;1.63;1.00;;;21.10;96.10;;;;;;5094682;28;20392;-67
2022/07/04 11:34:59;;;;;;;1.10;1.00;;;20.80;96.10;;;;;;5073437;28;20857;-66
2022/07/04 11:37:25;;;;;;;1.20;0.97;;;20.90;96.10;;;;;;5075232;28;20408;-66
2022/07/04 11:39:52;;;;;;;0.90;0.80;;;21.50;96.30;;;;;;5092975;28;20426;-68
2022/07/04 11:45:07;;;;;;;2.83;1.30;;;23.50;90.80;;;;;;5075310;28;20506;-67
2022/07/04 11:47:36;;;;;;;1.00;0.80;;;23.20;84.30;;;;;;5085968;28;20468;-76
2022/07/04 11:50:11;;;;;;;2.77;1.57;;;22.70;80.00;;;;;;5077251;28;20432;-68
2022/07/04 11:52:37;;;;;;;1.87;1.27;;;22.50;83.50;;;;;;5074929;28;20521;-75
2022/07/04 11:55:04;;;;;;;3.33;1.53;;;22.10;81.00;;;;;;5074322;28;20463;-67
2022/07/04 11:57:34;;;;;;;1.67;1.00;;;22.00;84.70;;;;;;5084298;28;20165;-75
2022/07/04 12:00:04;;;;;;;1.20;0.97;;;22.20;87.10;;;;;;5094920;28;20409;-75
2022/07/04 12:02:32;;;;;;;1.07;0.97;;;22.90;82.00;;;;;;5084035;28;21182;-67
2022/07/04 12:04:59;;;;;;;1.30;0.90;;;23.70;85.40;;;;;;5074589;28;20419;-75
2022/07/04 12:07:26;;;;;;;2.63;1.40;;;23.60;77.70;;;;;;5080980;28;20920;-76
2022/07/04 12:09:53;;;;;;;1.77;1.10;;;23.10;77.50;;;;;;5094746;28;20482;-68
2022/07/04 12:12:19;;;;;;;2.60;1.37;;;22.70;79.80;;;;;;5085669;28;20504;-75
2022/07/04 12:14:58;;;;;;;1.93;1.30;;;22.30;82.60;;;;;;5073820;28;20439;-67
2022/07/04 12:17:35;;;;;;;1.53;1.40;;;22.00;84.10;;;;;;5074746;28;20909;-75
2022/07/04 12:20:13;;;;;;;2.10;1.10;;;21.70;84.80;;;;;;5074226;28;20430;-75
2022/07/04 12:22:49;;;;;;;1.37;1.27;;;21.30;78.50;;;;;;5072594;28;20456;-75
2022/07/04 12:25:26;;;;;;;2.27;1.20;;;21.20;86.60;;;;;;5074086;28;20481;-66
2022/07/04 12:27:58;;;;;;;6.43;1.43;;;21.10;87.00;;;;;;5075202;28;20424;-68
2022/07/04 12:30:29;;;;;;;3.10;1.13;;;21.60;90.30;;;;;;5073629;28;20393;-70
2022/07/04 12:33:00;;;;;;;1.87;1.23;;;22.50;91.10;;;;;;5085279;28;20411;-66
2022/07/04 12:35:47;;;;;;;1.97;1.20;;;23.20;90.80;;;;;;5094262;28;20396;-68
2022/07/04 12:38:41;;;;;;;1.70;1.00;;;24.50;92.20;;;;;;5078866;28;20420;-66
2022/07/04 12:41:11;;;;;;;1.43;1.00;;;25.30;86.90;;;;;;5072617;28;20412;-75
2022/07/04 12:43:42;;;;;;;1.00;0.90;;;24.80;68.20;;;;;;5090426;28;20481;-74
2022/07/04 12:46:11;;;;;;;3.33;0.83;;;25.00;63.90;;;;;;5078512;28;20891;-74
2022/07/04 12:48:39;;;;;;;1.70;1.00;;;25.50;64.50;;;;;;5074982;28;20953;-75
2022/07/04 12:51:19;;;;;;;1.20;0.80;;;26.00;55.50;;;;;;5072202;28;20942;-67
2022/07/04 12:53:47;;;;;;;2.67;0.93;;;25.70;37.40;;;;;;5072668;28;20431;-67
2022/07/04 12:56:37;;;;;;;1.83;1.00;;;24.20;22.60;;;;;;5073728;28;20514;-75
2022/07/04 12:59:06;;;;;;;1.50;1.10;;;23.50;19.90;;;;;;5080917;28;21465;-75
2022/07/04 13:01:32;;;;;;;1.73;1.10;;;23.40;21.50;;;;;;5073556;28;20487;-68
2022/07/04 13:03:58;;;;;;;3.07;1.13;;;23.20;21.50;;;;;;5072341;28;20515;-75